createdAt,value
2018-11-14T00:00:55.582Z,10.40
2018-11-14T00:05:59.874Z,10.50
2018-11-14T00:11:03.820Z,10.50
2018-11-14T00:16:07.642Z,10.50
2018-11-14T00:21:11.352Z,10.50
2018-11-14T00:26:15.089Z,10.50
2018-11-14T00:31:19.314Z,10.50
2018-11-14T00:36:23.315Z,10.60
2018-11-14T00:41:27.089Z,10.60
2018-11-14T00:46:31.124Z,10.70
2018-11-14T00:51:34.767Z,10.60
2018-11-14T00:56:40.288Z,10.60
2018-11-14T01:01:44.204Z,10.70
2018-11-14T01:06:48.253Z,10.70
2018-11-14T01:11:52.168Z,10.80
2018-11-14T01:16:55.800Z,10.80
2018-11-14T01:21:59.354Z,10.90
2018-11-14T01:27:03.021Z,10.90
2018-11-14T01:32:07.264Z,11.00
2018-11-14T01:37:11.541Z,11.00
2018-11-14T01:42:15.128Z,10.90
2018-11-14T01:47:19.544Z,10.90
2018-11-14T01:52:23.126Z,10.90
2018-11-14T01:57:27.078Z,10.90
2018-11-14T02:02:30.653Z,11.00
2018-11-14T02:07:34.343Z,10.90
2018-11-14T02:12:38.544Z,10.80
2018-11-14T02:17:42.578Z,10.80
2018-11-14T02:22:46.663Z,10.80
2018-11-14T02:27:50.922Z,10.80
2018-11-14T02:32:54.882Z,10.70
2018-11-14T02:37:58.680Z,10.70
2018-11-14T02:43:02.275Z,10.60
2018-11-14T02:48:05.952Z,10.60
2018-11-14T02:53:09.560Z,10.60
2018-11-14T02:58:13.135Z,10.60
2018-11-14T03:03:16.756Z,10.50
2018-11-14T03:08:20.572Z,10.40
2018-11-14T03:13:24.495Z,10.50
2018-11-14T03:18:28.315Z,10.50
2018-11-14T03:23:38.383Z,10.50
2018-11-14T03:28:42.210Z,10.50
2018-11-14T03:33:46.138Z,10.50
2018-11-14T03:38:50.101Z,10.50
2018-11-14T03:43:54.809Z,10.50
2018-11-14T03:48:58.469Z,10.40
2018-11-14T03:54:02.081Z,10.40
2018-11-14T03:59:05.877Z,10.40
2018-11-14T04:04:09.852Z,10.30
2018-11-14T04:09:13.803Z,10.20
2018-11-14T04:14:17.399Z,10.20
2018-11-14T04:19:21.379Z,10.20
2018-11-14T04:24:25.297Z,10.20
2018-11-14T04:29:29.313Z,10.20
2018-11-14T04:34:32.847Z,10.10
2018-11-14T04:39:36.455Z,10.10
2018-11-14T04:44:41.342Z,10.10
2018-11-14T04:49:44.966Z,10.20
2018-11-14T04:54:48.589Z,10.20
2018-11-14T04:59:53.908Z,10.20
2018-11-14T05:04:57.536Z,10.20
2018-11-14T05:10:01.216Z,10.20
2018-11-14T05:15:04.880Z,10.20
2018-11-14T05:20:10.276Z,10.20
2018-11-14T05:25:14.189Z,10.20
2018-11-14T05:30:19.340Z,10.10
2018-11-14T05:35:25.592Z,10.00
2018-11-14T05:40:29.227Z,10.00
2018-11-14T05:45:32.877Z,9.90
2018-11-14T05:50:36.355Z,10.00
2018-11-14T05:55:39.982Z,10.00
2018-11-14T06:00:43.647Z,9.90
2018-11-14T06:05:47.225Z,9.90
2018-11-14T06:10:50.845Z,9.80
2018-11-14T06:15:54.603Z,9.80
2018-11-14T06:20:58.205Z,9.80
2018-11-14T06:26:01.946Z,9.90
2018-11-14T06:31:05.929Z,9.90
2018-11-14T06:36:12.622Z,10.50
2018-11-14T06:41:16.245Z,10.50
2018-11-14T06:46:19.881Z,10.30
2018-11-14T06:51:23.477Z,10.10
2018-11-14T06:56:27.258Z,10.00
2018-11-14T07:01:31.257Z,9.90
2018-11-14T07:06:34.854Z,9.90
2018-11-14T07:11:38.526Z,9.90
2018-11-14T07:22:10.097Z,9.90
2018-11-14T07:27:13.679Z,9.80
2018-11-14T07:32:17.314Z,9.70
2018-11-14T07:37:20.867Z,9.90
2018-11-14T07:42:24.586Z,9.90
2018-11-14T07:47:28.134Z,9.80
2018-11-14T07:52:31.708Z,9.80
2018-11-14T07:57:35.543Z,9.70
2018-11-14T08:02:39.175Z,9.60
2018-11-14T08:07:42.976Z,9.70
2018-11-14T08:12:46.561Z,9.70
2018-11-14T08:17:50.672Z,9.60
2018-11-14T08:22:54.981Z,9.70
2018-11-14T08:27:58.590Z,9.80
2018-11-14T08:33:02.194Z,9.80
2018-11-14T08:38:05.832Z,9.90
2018-11-14T08:43:09.892Z,9.90
2018-11-14T08:48:14.481Z,9.90
2018-11-14T08:53:18.189Z,10.10
2018-11-14T08:58:21.795Z,10.10
2018-11-14T09:03:25.393Z,10.00
2018-11-14T09:08:28.971Z,9.90
2018-11-14T09:13:32.587Z,9.40
2018-11-14T09:18:38.479Z,8.90
2018-11-14T09:23:42.281Z,8.90
2018-11-14T09:28:45.845Z,9.10
2018-11-14T09:33:50.017Z,9.20
2018-11-14T09:38:54.177Z,9.10
2018-11-14T09:43:58.216Z,9.00
2018-11-14T09:49:02.149Z,9.00
2018-11-14T09:54:05.767Z,8.90
2018-11-14T09:59:09.429Z,9.20
2018-11-14T10:04:13.044Z,9.40
2018-11-14T10:09:16.689Z,9.60
2018-11-14T10:14:20.744Z,9.80
2018-11-14T10:19:24.660Z,10.00
2018-11-14T10:24:28.306Z,10.10
2018-11-14T10:29:32.010Z,10.10
2018-11-14T10:34:35.595Z,10.00
2018-11-14T10:39:40.172Z,10.00
2018-11-14T10:44:44.288Z,10.00
2018-11-14T10:49:47.980Z,10.10
2018-11-14T10:54:51.962Z,10.20
2018-11-14T10:59:55.577Z,10.00
2018-11-14T11:05:04.566Z,9.60
2018-11-14T11:10:13.981Z,9.70
2018-11-14T11:15:25.656Z,9.80
2018-11-14T11:20:29.427Z,9.70
2018-11-14T11:25:33.048Z,9.70
2018-11-14T11:30:40.228Z,9.90
2018-11-14T11:35:43.875Z,10.10
2018-11-14T11:40:47.532Z,10.20
2018-11-14T11:45:58.713Z,10.30
2018-11-14T11:51:03.110Z,10.30
2018-11-14T11:56:06.888Z,10.30
2018-11-14T12:01:11.508Z,10.50
2018-11-14T12:06:15.568Z,10.60
2018-11-14T12:11:18.999Z,10.60
2018-11-14T12:16:22.616Z,10.70
2018-11-14T12:21:26.292Z,10.70
2018-11-14T12:26:30.836Z,10.60
2018-11-14T12:31:34.479Z,10.60
2018-11-14T12:36:38.051Z,10.50
2018-11-14T12:41:41.788Z,10.50
2018-11-14T12:46:45.362Z,10.60
2018-11-14T12:51:48.946Z,10.70
2018-11-14T12:56:52.834Z,10.60
2018-11-14T13:01:56.707Z,10.60
2018-11-14T13:07:00.256Z,10.60
2018-11-14T13:12:03.865Z,10.20
2018-11-14T13:17:08.013Z,10.20
2018-11-14T13:22:11.696Z,10.30
2018-11-14T13:27:15.308Z,10.50
2018-11-14T13:32:19.058Z,10.50
2018-11-14T13:37:22.924Z,10.50
2018-11-14T13:42:26.818Z,10.50
2018-11-14T13:47:30.379Z,10.60
2018-11-14T13:52:33.971Z,10.70
2018-11-14T13:57:37.713Z,10.80
2018-11-14T14:02:42.021Z,10.80
2018-11-14T14:07:45.702Z,10.90
2018-11-14T14:12:50.763Z,10.90
2018-11-14T14:17:54.396Z,10.90
2018-11-14T14:22:59.865Z,11.00
2018-11-14T14:28:05.444Z,10.80
2018-11-14T14:33:09.140Z,10.80
2018-11-14T14:38:13.627Z,10.90
2018-11-14T14:43:18.203Z,10.50
2018-11-14T14:53:36.698Z,10.50
2018-11-14T14:58:41.904Z,10.50
2018-11-14T15:03:45.585Z,10.40
2018-11-14T15:08:50.019Z,10.20
2018-11-14T15:13:53.991Z,10.10
2018-11-14T15:18:58.288Z,10.00
2018-11-14T15:24:03.920Z,9.90
2018-11-14T15:29:07.495Z,10.10
2018-11-14T15:34:11.084Z,10.40
2018-11-14T15:39:14.728Z,10.40
2018-11-14T15:44:19.060Z,10.30
2018-11-14T15:49:22.791Z,10.30
2018-11-14T15:54:26.377Z,10.00
2018-11-14T15:59:30.099Z,10.20
2018-11-14T16:04:34.012Z,10.20
2018-11-14T16:09:37.645Z,10.30
2018-11-14T16:14:41.647Z,10.50
2018-11-14T16:19:45.452Z,10.60
2018-11-14T16:24:49.073Z,10.70
2018-11-14T16:29:55.452Z,10.70
2018-11-14T16:34:59.040Z,10.80
2018-11-14T16:40:03.056Z,10.70
2018-11-14T16:45:07.267Z,10.70
2018-11-14T16:50:12.926Z,10.60
2018-11-14T16:55:17.654Z,10.70
2018-11-14T17:00:26.553Z,10.80
2018-11-14T17:05:31.624Z,10.90
2018-11-14T17:10:35.605Z,10.70
2018-11-14T17:15:39.338Z,10.80
2018-11-14T17:20:43.002Z,10.70
2018-11-14T17:25:47.853Z,10.80
2018-11-14T17:30:52.434Z,10.70
2018-11-14T17:35:56.807Z,10.70
2018-11-14T17:41:00.779Z,10.70
2018-11-14T17:46:04.745Z,10.60
2018-11-14T17:51:08.401Z,10.60
2018-11-14T17:56:12.368Z,10.60
2018-11-14T18:01:15.980Z,10.70
2018-11-14T18:06:21.372Z,10.60
2018-11-14T18:11:27.949Z,10.60
2018-11-14T18:16:31.608Z,10.70
2018-11-14T18:21:35.530Z,10.60
2018-11-14T18:26:39.836Z,10.60
2018-11-14T18:31:43.444Z,10.30
2018-11-14T18:36:47.472Z,10.30
2018-11-14T18:41:51.114Z,10.20
2018-11-14T18:46:54.910Z,10.10
2018-11-14T18:51:59.303Z,10.10
2018-11-14T18:57:03.336Z,10.10
2018-11-14T19:02:07.267Z,10.00
2018-11-14T19:07:11.002Z,10.10
2018-11-14T19:12:14.827Z,10.10
2018-11-14T19:17:18.968Z,10.00
2018-11-14T19:22:22.743Z,10.10
2018-11-14T19:27:26.661Z,10.00
2018-11-14T19:32:30.583Z,10.10
2018-11-14T19:37:34.601Z,10.20
2018-11-14T19:42:38.947Z,10.30
2018-11-14T19:47:43.156Z,10.00
2018-11-14T19:52:47.223Z,10.00
2018-11-14T19:57:52.474Z,10.30
2018-11-14T20:02:56.438Z,10.40
2018-11-14T20:08:00.113Z,10.50
2018-11-14T20:13:03.845Z,10.60
2018-11-14T20:18:08.364Z,10.70
2018-11-14T20:23:12.587Z,10.80
2018-11-14T20:28:16.864Z,10.60
2018-11-14T20:33:20.494Z,10.60
2018-11-14T20:38:24.130Z,10.50
2018-11-14T20:43:27.840Z,10.50
2018-11-14T20:48:31.888Z,10.30
2018-11-14T20:53:35.548Z,10.20
2018-11-14T20:58:39.472Z,10.20
2018-11-14T21:03:43.253Z,10.20
2018-11-14T21:08:47.023Z,10.20
2018-11-14T21:13:56.616Z,10.20
2018-11-14T21:19:01.086Z,10.20
2018-11-14T21:24:04.728Z,10.20
2018-11-14T21:29:08.745Z,10.40
2018-11-14T21:34:12.358Z,10.40
2018-11-14T21:39:16.368Z,10.40
2018-11-14T21:44:20.311Z,10.50
2018-11-14T21:49:29.382Z,10.50
2018-11-14T21:54:33.366Z,10.50
2018-11-14T21:59:37.053Z,10.50
2018-11-14T22:04:40.628Z,10.40
2018-11-14T22:09:44.317Z,10.40
2018-11-14T22:14:48.456Z,10.40
2018-11-14T22:19:53.271Z,10.50
2018-11-14T22:24:58.628Z,10.50
2018-11-14T22:30:03.345Z,10.50
2018-11-14T22:40:26.582Z,10.40
2018-11-14T22:45:31.580Z,10.50
2018-11-14T22:50:39.294Z,10.50
2018-11-14T22:55:43.163Z,10.50
2018-11-14T23:00:47.368Z,10.60
2018-11-14T23:05:53.769Z,10.60
2018-11-14T23:11:00.482Z,10.50
2018-11-14T23:16:04.443Z,10.50
2018-11-14T23:21:08.280Z,10.50
2018-11-14T23:26:11.883Z,10.50
2018-11-14T23:31:15.534Z,10.60
2018-11-14T23:36:19.883Z,10.60
2018-11-14T23:41:23.712Z,10.70
2018-11-14T23:46:27.440Z,10.80
2018-11-14T23:51:31.565Z,10.70
2018-11-14T23:56:37.177Z,10.70
